Gas Snapper — V7TZ3 — position and weather

sailwx.info

Track history (hours):
 
Tides and Currents Weather Stations Pressure Air Temp Water Temp Dewpoint Dewpoint Depression Visibility Wind Speed Wind Dir Waves Ship Positions

Gas Snapper

Last reported at 2016-Feb-04 03:30 UTC. Time now 2016-Feb-06 07:10 UTC.
Position N 46°32' E 030°59'.

Length 174 m; draft 7.5 m.

Type: Ship (hazmat cat D). MMSI: 538003911.

Date/timePositionNaut miles runAvg speedWind from/ knotsBaromVisibWave heightAir tempDewpointWater temp
2016-Feb-04 03:30N 46°32' E 030°59'0 0.0
2016-Feb-04 01:24N 46°32' E 030°59'0 0.0
2016-Feb-04 00:24N 46°32' E 030°59'0 0.0
2016-Feb-03 23:16N 46°32' E 030°59'0 0.0
2016-Feb-03 21:32N 46°32' E 030°59'0 0.0
2016-Feb-03 15:31N 46°32' E 030°59'0 0.0
2016-Feb-03 14:33N 46°32' E 030°59'0 0.1
2016-Feb-03 13:30N 46°32' E 030°59'0 0.0
2016-Feb-03 12:06N 46°32' E 030°59'0 0.0
2016-Feb-03 07:11N 46°32' E 030°59'0 0.0
2016-Feb-03 03:30N 46°32' E 030°59'0 0.0
2016-Feb-03 02:28N 46°32' E 030°59'0 0.0
2016-Feb-03 01:30N 46°32' E 030°59'0 0.0
2016-Feb-02 16:24N 46°32' E 030°59'0 0.0
2016-Feb-02 08:30N 46°32' E 030°59'0 0.0
2016-Jan-31 13:19N 46°32' E 030°59'0 0.0
2016-Jan-31 01:12N 46°32' E 030°59'0 0.0
2016-Jan-31 00:31N 46°32' E 030°59'0 0.0
2016-Jan-30 23:30N 46°32' E 030°59'0 0.0
2016-Jan-30 22:30N 46°32' E 030°59'0 0.0
2016-Jan-30 21:18N 46°32' E 030°59'0 0.0
2016-Jan-30 20:33N 46°32' E 030°59'0 0.0
2016-Jan-30 19:22N 46°32' E 030°59'0 0.0
2016-Jan-30 18:30N 46°32' E 030°59'0 0.0
2016-Jan-30 17:33N 46°32' E 030°59'0 0.0
2016-Jan-30 16:30N 46°32' E 030°59'0 0.0
2016-Jan-30 15:33N 46°32' E 030°59'0 0.0
2016-Jan-30 14:30N 46°32' E 030°59'  
2016-Jan-26 16:07N 40°45' E 029°04'1 1.4
2016-Jan-26 15:32N 40°45' E 029°03'1 1.4
2016-Jan-26 14:33N 40°46' E 029°02'1 1.5
2016-Jan-26 13:33N 40°47' E 028°60'2 1.5
2016-Jan-26 12:31N 40°47' E 028°58'4 4.2
2016-Jan-26 11:33N 40°51' E 028°56'  
Track history (hours):
 
Tides and Currents Weather Stations Pressure Air Temp Water Temp Dewpoint Dewpoint Depression Visibility Wind Speed Wind Dir Waves Ship Positions

Gas Snapper

Last reported at 2016-Feb-04 03:30 UTC. Time now 2016-Feb-06 07:10 UTC.
Position N 46°32' E 030°59'.

Length 174 m; draft 7.5 m.

Type: Ship (hazmat cat D). MMSI: 538003911.

Date/timePositionNaut miles runAvg speedWind from/ knotsBaromVisibWave heightAir tempDewpointWater temp
2016-Feb-04 03:30N 46°32' E 030°59'0 0.0
2016-Feb-04 01:24N 46°32' E 030°59'0 0.0
2016-Feb-04 00:24N 46°32' E 030°59'0 0.0
2016-Feb-03 23:16N 46°32' E 030°59'0 0.0
2016-Feb-03 21:32N 46°32' E 030°59'0 0.0
2016-Feb-03 15:31N 46°32' E 030°59'0 0.0
2016-Feb-03 14:33N 46°32' E 030°59'0 0.1
2016-Feb-03 13:30N 46°32' E 030°59'0 0.0
2016-Feb-03 12:06N 46°32' E 030°59'0 0.0
2016-Feb-03 07:11N 46°32' E 030°59'0 0.0
2016-Feb-03 03:30N 46°32' E 030°59'0 0.0
2016-Feb-03 02:28N 46°32' E 030°59'0 0.0
2016-Feb-03 01:30N 46°32' E 030°59'0 0.0
2016-Feb-02 16:24N 46°32' E 030°59'0 0.0
2016-Feb-02 08:30N 46°32' E 030°59'0 0.0
2016-Jan-31 13:19N 46°32' E 030°59'0 0.0
2016-Jan-31 01:12N 46°32' E 030°59'0 0.0
2016-Jan-31 00:31N 46°32' E 030°59'0 0.0
2016-Jan-30 23:30N 46°32' E 030°59'0 0.0
2016-Jan-30 22:30N 46°32' E 030°59'0 0.0
2016-Jan-30 21:18N 46°32' E 030°59'0 0.0
2016-Jan-30 20:33N 46°32' E 030°59'0 0.0
2016-Jan-30 19:22N 46°32' E 030°59'0 0.0
2016-Jan-30 18:30N 46°32' E 030°59'0 0.0
2016-Jan-30 17:33N 46°32' E 030°59'0 0.0
2016-Jan-30 16:30N 46°32' E 030°59'0 0.0
2016-Jan-30 15:33N 46°32' E 030°59'0 0.0
2016-Jan-30 14:30N 46°32' E 030°59'  
2016-Jan-26 16:07N 40°45' E 029°04'1 1.4
2016-Jan-26 15:32N 40°45' E 029°03'1 1.4
2016-Jan-26 14:33N 40°46' E 029°02'1 1.5
2016-Jan-26 13:33N 40°47' E 028°60'2 1.5
2016-Jan-26 12:31N 40°47' E 028°58'4 4.2
2016-Jan-26 11:33N 40°51' E 028°56'  

Dump ship's entire track history